Terminal Aerodrome Forecast
Issued by NWS

Home | Current Version | Previous Version | Text Only | Print | Product List | Glossary On
Versions: 1 2 3 4 5 6 7 8 9 10 11 12 13 14 15
000
FTUS42 KMLB 242300
TAFTIX
TAF
KTIX 242335Z 2500/2524 12007KT 5SM TSRA SCT040CB BKN060 BKN120
     FM250200 23004KT P6SM SCT250
     FM251500 24006KT P6SM SCT030
     FM251800 16008KT P6SM VCTS SCT035CB BKN080
      AMD NOT SKED 2501/2511=

USA.gov is the U.S. government's official web portal to all federal, state and local government web resources and services.